createdAt,value
2024-01-30T10:18:07.893Z,8.10
2024-01-30T17:16:23.069Z,1.00
2024-01-30T17:18:51.248Z,1.00
2024-01-30T17:21:19.898Z,1.00
2024-01-30T17:23:47.876Z,1.00
2024-01-30T17:26:16.490Z,1.00
2024-01-30T17:28:44.655Z,1.00
2024-01-30T17:31:13.743Z,1.00
2024-01-30T17:33:43.809Z,99.90
2024-01-30T17:36:11.940Z,99.90
2024-01-30T17:38:39.958Z,99.90
2024-01-30T17:41:12.335Z,1.00
2024-01-30T17:43:41.115Z,1.00
2024-01-30T17:46:09.881Z,1.00
2024-01-30T17:48:38.254Z,1.00
2024-01-30T17:51:07.774Z,1.00
2024-01-30T17:53:35.753Z,1.00
2024-01-30T17:56:06.827Z,1.00
2024-01-30T17:58:35.188Z,1.00
2024-01-30T18:01:04.273Z,1.00
2024-01-30T18:03:32.439Z,1.00
2024-01-30T18:06:01.157Z,1.00
2024-01-30T18:08:30.592Z,1.00
2024-01-30T18:10:58.848Z,1.00
2024-01-30T18:13:27.137Z,1.00
2024-01-30T18:15:55.341Z,1.00
2024-01-30T18:18:27.486Z,1.00
2024-01-30T18:20:58.392Z,1.00
2024-01-30T18:23:26.798Z,1.00
2024-01-30T18:26:00.940Z,1.00
2024-01-30T18:28:29.358Z,1.00
2024-01-30T18:30:58.082Z,1.00
2024-01-30T18:33:26.598Z,1.00
2024-01-30T18:35:54.769Z,1.00
2024-01-30T18:38:23.097Z,1.00
2024-01-30T18:40:51.354Z,1.00
2024-01-30T18:43:20.843Z,1.00
2024-01-30T18:45:54.570Z,1.00
2024-01-30T18:48:22.782Z,1.00
2024-01-30T18:50:50.801Z,1.00
2024-01-30T18:53:18.824Z,1.00
2024-01-30T18:55:47.086Z,1.00
2024-01-30T18:58:16.360Z,1.00
2024-01-30T19:00:48.502Z,1.00
2024-01-30T19:03:18.616Z,1.00
2024-01-30T19:05:47.294Z,1.00
2024-01-30T19:08:17.013Z,1.00
2024-01-30T19:10:46.811Z,1.00
2024-01-30T19:13:15.962Z,1.00
2024-01-30T19:15:45.741Z,1.00
2024-01-30T19:18:14.112Z,1.00
2024-01-30T19:20:42.807Z,1.00
2024-01-30T19:23:10.847Z,1.00
2024-01-30T19:25:40.756Z,1.00
2024-01-30T19:28:10.649Z,1.00
2024-01-30T19:30:38.764Z,1.00
2024-01-30T19:33:08.319Z,1.00
2024-01-30T19:35:36.401Z,1.00
2024-01-30T19:38:04.542Z,1.00
2024-01-30T19:40:32.618Z,1.00
2024-01-30T19:43:00.798Z,1.00
2024-01-30T19:45:28.965Z,1.00
2024-01-30T19:47:57.014Z,1.00
2024-01-30T19:50:26.540Z,1.00
2024-01-30T19:52:54.550Z,32.20
2024-01-30T19:55:24.817Z,45.20
2024-01-30T19:57:54.188Z,99.90
2024-01-30T20:00:22.567Z,99.90
2024-01-30T20:02:50.680Z,99.90
2024-01-30T20:05:19.057Z,99.90
2024-01-30T20:07:48.617Z,99.90
2024-01-30T20:10:16.989Z,1.00
2024-01-30T20:12:45.020Z,1.00
2024-01-30T20:15:15.779Z,1.00
2024-01-30T20:17:44.933Z,1.00
2024-01-30T20:20:17.512Z,1.00
2024-01-30T20:22:46.135Z,1.00
2024-01-30T20:25:19.233Z,1.00
2024-01-30T20:27:48.677Z,1.00
2024-01-30T20:30:17.674Z,1.00
2024-01-30T20:32:46.025Z,1.00
2024-01-30T20:35:14.264Z,1.00
2024-01-30T20:37:42.464Z,1.00
2024-01-30T20:40:11.228Z,99.90
2024-01-30T20:42:40.580Z,80.10
2024-01-30T20:45:10.546Z,1.00
2024-01-30T20:47:38.588Z,95.00
2024-01-30T20:50:07.634Z,99.90
2024-01-30T20:52:35.629Z,1.00
2024-01-30T20:55:04.371Z,1.00
2024-01-30T20:57:32.389Z,29.10
2024-01-30T21:00:01.776Z,1.00
2024-01-30T21:02:29.915Z,1.00
2024-01-30T21:04:57.992Z,1.00
2024-01-30T21:07:26.122Z,1.00
2024-01-30T21:09:54.232Z,1.00
2024-01-30T21:12:22.241Z,1.00
2024-01-30T21:14:52.206Z,1.00
2024-01-30T21:17:21.664Z,1.00
2024-01-30T21:19:49.969Z,1.00
2024-01-30T21:22:18.173Z,1.00
2024-01-30T21:24:46.493Z,1.00
2024-01-30T21:27:14.501Z,1.00
2024-01-30T21:29:44.245Z,99.90
2024-01-30T21:32:13.265Z,1.00
2024-01-30T21:34:42.957Z,1.00
2024-01-30T21:37:11.018Z,1.00
2024-01-30T21:39:40.950Z,1.00
2024-01-30T21:42:09.082Z,1.00
2024-01-30T21:44:37.119Z,1.00
2024-01-30T21:47:05.417Z,1.00
2024-01-30T21:49:33.506Z,1.00
2024-01-30T21:52:06.120Z,1.00
2024-01-30T21:54:34.392Z,1.00
2024-01-30T21:57:02.463Z,1.00
2024-01-30T21:59:31.481Z,1.00
2024-01-30T22:01:59.676Z,1.00
2024-01-30T22:04:28.616Z,1.00
2024-01-30T22:06:56.753Z,1.00
2024-01-30T22:09:26.134Z,1.00
2024-01-30T22:11:54.130Z,1.00
2024-01-30T22:14:22.101Z,1.00
2024-01-30T22:16:51.275Z,1.00
2024-01-30T22:19:19.332Z,1.00
2024-01-30T22:21:47.457Z,1.00
2024-01-30T22:24:15.475Z,1.00
2024-01-30T22:26:45.217Z,1.00
2024-01-30T22:29:13.297Z,1.00
2024-01-30T22:31:41.331Z,1.00
2024-01-30T22:34:09.421Z,1.00
2024-01-30T22:36:37.408Z,1.00
2024-01-30T22:39:06.689Z,1.00
2024-01-30T22:41:34.739Z,1.00
2024-01-30T22:44:05.068Z,1.00
2024-01-30T22:46:33.170Z,1.00
2024-01-30T22:49:01.723Z,1.00
2024-01-30T22:51:30.119Z,1.00
2024-01-30T22:53:58.278Z,1.00
2024-01-30T22:56:26.257Z,1.00
2024-01-30T22:58:54.255Z,1.00
2024-01-30T23:01:23.652Z,1.00
2024-01-30T23:03:51.703Z,1.00
2024-01-30T23:06:20.467Z,1.00
2024-01-30T23:08:48.582Z,1.00
2024-01-30T23:11:16.556Z,1.00
2024-01-30T23:13:44.721Z,1.00
2024-01-30T23:16:12.794Z,1.00
2024-01-30T23:18:42.295Z,1.00
2024-01-30T23:21:10.423Z,1.00
2024-01-30T23:23:38.378Z,1.00
2024-01-30T23:26:06.354Z,1.00
2024-01-30T23:28:34.422Z,1.00
2024-01-30T23:31:02.739Z,1.00
2024-01-30T23:33:30.813Z,1.00
2024-01-30T23:36:00.716Z,1.00
2024-01-30T23:38:28.696Z,1.00
2024-01-30T23:40:57.346Z,1.00
2024-01-30T23:43:28.762Z,1.00
2024-01-30T23:45:58.375Z,1.00
2024-01-30T23:48:26.527Z,1.00
2024-01-30T23:50:54.530Z,1.00
2024-01-30T23:53:23.847Z,1.00
2024-01-30T23:55:51.958Z,1.00
2024-01-30T23:58:21.060Z,1.00
